sensor_id;sensor_type;location;lat;lon;timestamp;pressure;altitude;pressure_sealevel;temperature;humidity
42671;BME280;28283;55.426;37.756;2024-01-30T00:02:49;100532.44;;;-1.68;87.72
42671;BME280;28283;55.426;37.756;2024-01-30T00:07:50;100521.03;;;-1.69;87.68
42671;BME280;28283;55.426;37.756;2024-01-30T00:12:50;100514.75;;;-1.66;87.81
42671;BME280;28283;55.426;37.756;2024-01-30T00:17:51;100503.16;;;-1.64;87.63
42671;BME280;28283;55.426;37.756;2024-01-30T00:22:52;100490.34;;;-1.70;87.94
42671;BME280;28283;55.426;37.756;2024-01-30T00:27:53;100486.22;;;-1.60;87.45
42671;BME280;28283;55.426;37.756;2024-01-30T00:32:53;100495.81;;;-1.59;87.28
42671;BME280;28283;55.426;37.756;2024-01-30T00:37:54;100499.41;;;-1.60;87.95
42671;BME280;28283;55.426;37.756;2024-01-30T00:42:54;100478.97;;;-1.56;87.57
42671;BME280;28283;55.426;37.756;2024-01-30T00:47:55;100480.75;;;-1.57;87.60
42671;BME280;28283;55.426;37.756;2024-01-30T00:52:56;100477.66;;;-1.49;87.04
42671;BME280;28283;55.426;37.756;2024-01-30T00:57:56;100490.53;;;-1.59;87.54
42671;BME280;28283;55.426;37.756;2024-01-30T01:02:57;100499.50;;;-1.61;87.96
42671;BME280;28283;55.426;37.756;2024-01-30T01:07:57;100492.50;;;-1.48;87.30
42671;BME280;28283;55.426;37.756;2024-01-30T01:12:58;100479.41;;;-1.49;87.29
42671;BME280;28283;55.426;37.756;2024-01-30T01:17:58;100485.56;;;-1.49;87.54
42671;BME280;28283;55.426;37.756;2024-01-30T01:22:59;100480.72;;;-1.42;87.39
42671;BME280;28283;55.426;37.756;2024-01-30T01:28:00;100487.13;;;-1.46;87.54
42671;BME280;28283;55.426;37.756;2024-01-30T01:33:01;100471.59;;;-1.51;87.86
42671;BME280;28283;55.426;37.756;2024-01-30T01:38:02;100476.75;;;-1.35;87.33
42671;BME280;28283;55.426;37.756;2024-01-30T01:43:03;100480.78;;;-1.29;87.09
42671;BME280;28283;55.426;37.756;2024-01-30T01:48:05;100471.84;;;-1.27;86.96
42671;BME280;28283;55.426;37.756;2024-01-30T01:53:07;100468.56;;;-1.30;87.02
42671;BME280;28283;55.426;37.756;2024-01-30T01:58:08;100470.72;;;-1.23;86.91
42671;BME280;28283;55.426;37.756;2024-01-30T02:03:10;100465.25;;;-1.20;86.66
42671;BME280;28283;55.426;37.756;2024-01-30T02:08:11;100447.72;;;-1.21;86.84
42671;BME280;28283;55.426;37.756;2024-01-30T02:13:12;100455.44;;;-1.18;86.78
42671;BME280;28283;55.426;37.756;2024-01-30T02:18:12;100455.25;;;-1.14;86.77
42671;BME280;28283;55.426;37.756;2024-01-30T02:23:13;100445.09;;;-1.35;87.41
42671;BME280;28283;55.426;37.756;2024-01-30T02:28:15;100444.00;;;-1.04;86.74
42671;BME280;28283;55.426;37.756;2024-01-30T02:33:16;100408.44;;;-0.98;86.37
42671;BME280;28283;55.426;37.756;2024-01-30T02:38:16;100457.84;;;-1.00;86.36
42671;BME280;28283;55.426;37.756;2024-01-30T02:43:17;100452.75;;;-1.03;86.36
42671;BME280;28283;55.426;37.756;2024-01-30T02:48:17;100442.75;;;-0.98;86.52
42671;BME280;28283;55.426;37.756;2024-01-30T02:53:18;100454.03;;;-0.96;86.44
42671;BME280;28283;55.426;37.756;2024-01-30T02:58:18;100451.22;;;-0.93;86.63
42671;BME280;28283;55.426;37.756;2024-01-30T03:03:19;100448.66;;;-0.94;86.71
42671;BME280;28283;55.426;37.756;2024-01-30T03:08:19;100447.41;;;-0.89;86.50
42671;BME280;28283;55.426;37.756;2024-01-30T03:13:21;100442.38;;;-0.79;86.30
42671;BME280;28283;55.426;37.756;2024-01-30T03:18:21;100437.94;;;-0.79;86.34
42671;BME280;28283;55.426;37.756;2024-01-30T03:23:22;100428.13;;;-0.77;86.13
42671;BME280;28283;55.426;37.756;2024-01-30T03:28:22;100449.34;;;-0.78;86.27
42671;BME280;28283;55.426;37.756;2024-01-30T03:33:23;100469.13;;;-0.71;86.55
42671;BME280;28283;55.426;37.756;2024-01-30T03:38:23;100458.28;;;-0.66;86.47
42671;BME280;28283;55.426;37.756;2024-01-30T03:43:24;100435.16;;;-0.63;86.22
42671;BME280;28283;55.426;37.756;2024-01-30T03:48:24;100447.28;;;-0.60;86.03
42671;BME280;28283;55.426;37.756;2024-01-30T03:53:25;100451.50;;;-0.58;86.37
42671;BME280;28283;55.426;37.756;2024-01-30T03:58:26;100462.19;;;-0.59;86.16
42671;BME280;28283;55.426;37.756;2024-01-30T04:03:27;100453.13;;;-0.55;86.35
42671;BME280;28283;55.426;37.756;2024-01-30T04:08:27;100476.88;;;-0.55;86.04
42671;BME280;28283;55.426;37.756;2024-01-30T04:13:28;100453.44;;;-0.47;86.07
42671;BME280;28283;55.426;37.756;2024-01-30T04:18:28;100461.16;;;-0.44;86.30
42671;BME280;28283;55.426;37.756;2024-01-30T04:23:29;100466.25;;;-0.41;86.04
42671;BME280;28283;55.426;37.756;2024-01-30T04:28:30;100483.91;;;-0.41;86.29
42671;BME280;28283;55.426;37.756;2024-01-30T04:33:30;100475.00;;;-0.40;86.41
42671;BME280;28283;55.426;37.756;2024-01-30T04:38:31;100467.81;;;-0.38;86.35
42671;BME280;28283;55.426;37.756;2024-01-30T04:43:31;100463.06;;;-0.33;86.21
42671;BME280;28283;55.426;37.756;2024-01-30T04:48:32;100457.88;;;-0.34;86.48
42671;BME280;28283;55.426;37.756;2024-01-30T04:53:32;100475.44;;;-0.33;86.52
42671;BME280;28283;55.426;37.756;2024-01-30T04:58:33;100473.25;;;-0.27;86.38
42671;BME280;28283;55.426;37.756;2024-01-30T05:03:33;100475.66;;;-0.24;86.26
42671;BME280;28283;55.426;37.756;2024-01-30T05:08:34;100477.03;;;-0.18;86.11
42671;BME280;28283;55.426;37.756;2024-01-30T05:13:37;100478.63;;;-0.15;86.14
42671;BME280;28283;55.426;37.756;2024-01-30T05:18:38;100482.44;;;-0.20;86.20
42671;BME280;28283;55.426;37.756;2024-01-30T05:23:38;100474.09;;;-0.13;86.23
42671;BME280;28283;55.426;37.756;2024-01-30T05:28:40;100481.38;;;-0.17;86.47
42671;BME280;28283;55.426;37.756;2024-01-30T05:33:40;100478.22;;;-0.09;86.72
42671;BME280;28283;55.426;37.756;2024-01-30T05:38:41;100480.34;;;-0.02;86.05
42671;BME280;28283;55.426;37.756;2024-01-30T05:43:41;100488.81;;;0.04;85.96
42671;BME280;28283;55.426;37.756;2024-01-30T05:48:42;100477.06;;;0.08;86.24
42671;BME280;28283;55.426;37.756;2024-01-30T05:53:42;100485.19;;;0.05;86.24
42671;BME280;28283;55.426;37.756;2024-01-30T05:58:43;100493.75;;;0.08;85.86
42671;BME280;28283;55.426;37.756;2024-01-30T06:03:43;100485.41;;;0.02;86.36
42671;BME280;28283;55.426;37.756;2024-01-30T06:08:44;100484.56;;;0.14;86.11
42671;BME280;28283;55.426;37.756;2024-01-30T06:13:44;100497.69;;;0.15;86.13
42671;BME280;28283;55.426;37.756;2024-01-30T06:18:45;100505.63;;;0.15;86.38
42671;BME280;28283;55.426;37.756;2024-01-30T06:23:45;100498.13;;;0.22;86.10
42671;BME280;28283;55.426;37.756;2024-01-30T06:28:46;100499.28;;;0.18;86.44
42671;BME280;28283;55.426;37.756;2024-01-30T06:33:47;100504.03;;;0.26;86.24
42671;BME280;28283;55.426;37.756;2024-01-30T06:38:47;100500.84;;;0.33;85.77
42671;BME280;28283;55.426;37.756;2024-01-30T06:43:48;100501.59;;;0.35;85.70
42671;BME280;28283;55.426;37.756;2024-01-30T06:48:48;100518.19;;;0.25;85.86
42671;BME280;28283;55.426;37.756;2024-01-30T06:53:48;100516.31;;;0.40;86.03
42671;BME280;28283;55.426;37.756;2024-01-30T06:58:52;100525.91;;;0.41;85.73
42671;BME280;28283;55.426;37.756;2024-01-30T07:03:53;100540.31;;;0.36;86.10
42671;BME280;28283;55.426;37.756;2024-01-30T07:08:53;100546.78;;;0.45;85.86
42671;BME280;28283;55.426;37.756;2024-01-30T07:13:54;100526.13;;;0.50;85.73
42671;BME280;28283;55.426;37.756;2024-01-30T07:18:54;100520.50;;;0.55;86.06
42671;BME280;28283;55.426;37.756;2024-01-30T07:23:56;100522.84;;;0.60;85.98
42671;BME280;28283;55.426;37.756;2024-01-30T07:28:57;100520.09;;;0.61;85.82
42671;BME280;28283;55.426;37.756;2024-01-30T07:33:57;100544.63;;;0.63;85.51
42671;BME280;28283;55.426;37.756;2024-01-30T07:38:58;100545.59;;;0.62;85.42
42671;BME280;28283;55.426;37.756;2024-01-30T07:43:58;100538.06;;;0.69;85.37
42671;BME280;28283;55.426;37.756;2024-01-30T07:48:59;100529.81;;;0.61;85.63
42671;BME280;28283;55.426;37.756;2024-01-30T07:54:00;100533.19;;;0.75;84.93
42671;BME280;28283;55.426;37.756;2024-01-30T07:59:00;100532.84;;;0.80;85.18
42671;BME280;28283;55.426;37.756;2024-01-30T08:04:01;100544.00;;;0.72;85.10
42671;BME280;28283;55.426;37.756;2024-01-30T08:09:01;100550.97;;;0.73;85.74
42671;BME280;28283;55.426;37.756;2024-01-30T08:14:02;100548.84;;;0.79;85.42
42671;BME280;28283;55.426;37.756;2024-01-30T08:19:03;100548.72;;;0.80;85.58
42671;BME280;28283;55.426;37.756;2024-01-30T08:24:03;100524.25;;;0.89;85.05
42671;BME280;28283;55.426;37.756;2024-01-30T08:29:04;100527.88;;;0.88;85.42
42671;BME280;28283;55.426;37.756;2024-01-30T08:34:05;100526.06;;;0.89;84.93
42671;BME280;28283;55.426;37.756;2024-01-30T08:39:05;100524.88;;;0.93;85.33
42671;BME280;28283;55.426;37.756;2024-01-30T08:44:05;100510.53;;;1.08;84.88
42671;BME280;28283;55.426;37.756;2024-01-30T08:49:06;100506.19;;;1.07;84.83
42671;BME280;28283;55.426;37.756;2024-01-30T08:54:06;100510.13;;;1.02;84.97
42671;BME280;28283;55.426;37.756;2024-01-30T08:59:08;100494.97;;;1.04;84.47
42671;BME280;28283;55.426;37.756;2024-01-30T09:04:08;100512.09;;;1.11;84.46
42671;BME280;28283;55.426;37.756;2024-01-30T09:09:09;100539.31;;;1.13;84.20
42671;BME280;28283;55.426;37.756;2024-01-30T09:14:09;100531.94;;;1.05;85.40
42671;BME280;28283;55.426;37.756;2024-01-30T09:19:10;100526.75;;;1.04;85.34
42671;BME280;28283;55.426;37.756;2024-01-30T09:24:10;100514.31;;;1.17;84.81
42671;BME280;28283;55.426;37.756;2024-01-30T09:29:11;100511.56;;;1.19;84.67
42671;BME280;28283;55.426;37.756;2024-01-30T09:34:11;100514.09;;;1.20;84.45
42671;BME280;28283;55.426;37.756;2024-01-30T09:39:12;100516.41;;;1.25;84.45
42671;BME280;28283;55.426;37.756;2024-01-30T09:44:15;100445.25;;;0.59;84.22
42671;BME280;28283;55.426;37.756;2024-01-30T09:49:16;100522.66;;;1.24;84.81
42671;BME280;28283;55.426;37.756;2024-01-30T09:54:18;100522.22;;;1.30;84.54
42671;BME280;28283;55.426;37.756;2024-01-30T09:59:18;100528.34;;;1.30;84.30
42671;BME280;28283;55.426;37.756;2024-01-30T10:04:19;100516.34;;;1.38;83.94
42671;BME280;28283;55.426;37.756;2024-01-30T10:09:19;100509.69;;;1.32;83.98
42671;BME280;28283;55.426;37.756;2024-01-30T10:14:20;100510.00;;;1.40;84.05
42671;BME280;28283;55.426;37.756;2024-01-30T10:19:20;100516.47;;;1.36;84.02
42671;BME280;28283;55.426;37.756;2024-01-30T10:24:24;100509.84;;;1.42;83.85
42671;BME280;28283;55.426;37.756;2024-01-30T10:29:24;100504.44;;;1.43;84.30
42671;BME280;28283;55.426;37.756;2024-01-30T10:34:25;100524.41;;;1.36;84.47
42671;BME280;28283;55.426;37.756;2024-01-30T10:39:28;100514.94;;;1.45;83.95
42671;BME280;28283;55.426;37.756;2024-01-30T10:44:29;100514.00;;;1.46;84.51
42671;BME280;28283;55.426;37.756;2024-01-30T10:49:30;100509.63;;;1.45;83.77
42671;BME280;28283;55.426;37.756;2024-01-30T10:54:31;100518.59;;;1.55;83.77
42671;BME280;28283;55.426;37.756;2024-01-30T10:59:31;100512.56;;;1.53;83.90
42671;BME280;28283;55.426;37.756;2024-01-30T11:04:36;100507.97;;;1.44;84.14
42671;BME280;28283;55.426;37.756;2024-01-30T11:09:36;100505.97;;;1.59;83.77
42671;BME280;28283;55.426;37.756;2024-01-30T11:14:37;100510.03;;;1.51;84.43
42671;BME280;28283;55.426;37.756;2024-01-30T11:19:41;100512.56;;;1.53;83.56
42671;BME280;28283;55.426;37.756;2024-01-30T11:24:42;100539.44;;;1.60;83.42
42671;BME280;28283;55.426;37.756;2024-01-30T11:29:42;100525.34;;;1.59;84.21
42671;BME280;28283;55.426;37.756;2024-01-30T11:34:43;100524.31;;;1.62;83.31
42671;BME280;28283;55.426;37.756;2024-01-30T11:39:44;100522.44;;;1.51;84.34
42671;BME280;28283;55.426;37.756;2024-01-30T11:44:47;100523.44;;;1.61;84.08
42671;BME280;28283;55.426;37.756;2024-01-30T11:49:48;100519.19;;;1.47;84.36
42671;BME280;28283;55.426;37.756;2024-01-30T11:54:48;100529.63;;;1.49;84.72
42671;BME280;28283;55.426;37.756;2024-01-30T11:59:49;100523.53;;;1.60;84.03
42671;BME280;28283;55.426;37.756;2024-01-30T12:04:49;100535.13;;;1.59;83.72
42671;BME280;28283;55.426;37.756;2024-01-30T12:09:53;100526.19;;;1.60;83.94
42671;BME280;28283;55.426;37.756;2024-01-30T12:14:55;100535.75;;;1.62;84.22
42671;BME280;28283;55.426;37.756;2024-01-30T12:25:12;100544.38;;;1.53;84.70
42671;BME280;28283;55.426;37.756;2024-01-30T12:30:13;100548.19;;;1.49;84.33
42671;BME280;28283;55.426;37.756;2024-01-30T12:35:17;100554.28;;;1.62;84.31
42671;BME280;28283;55.426;37.756;2024-01-30T12:40:18;100560.28;;;1.53;84.79
42671;BME280;28283;55.426;37.756;2024-01-30T12:45:19;100555.59;;;1.57;84.31
42671;BME280;28283;55.426;37.756;2024-01-30T12:50:22;100561.13;;;1.53;84.22
42671;BME280;28283;55.426;37.756;2024-01-30T12:55:23;100565.38;;;1.43;84.49
42671;BME280;28283;55.426;37.756;2024-01-30T13:00:23;100562.81;;;1.55;84.68
42671;BME280;28283;55.426;37.756;2024-01-30T13:05:24;100572.28;;;1.46;84.48
42671;BME280;28283;55.426;37.756;2024-01-30T13:10:24;100566.41;;;1.53;84.44
42671;BME280;28283;55.426;37.756;2024-01-30T13:15:25;100576.38;;;1.50;84.79
42671;BME280;28283;55.426;37.756;2024-01-30T13:20:26;100573.00;;;1.72;83.64
42671;BME280;28283;55.426;37.756;2024-01-30T13:25:27;100583.97;;;1.67;84.19
42671;BME280;28283;55.426;37.756;2024-01-30T13:30:27;100577.16;;;1.63;83.74
42671;BME280;28283;55.426;37.756;2024-01-30T13:35:28;100595.56;;;1.53;84.11
42671;BME280;28283;55.426;37.756;2024-01-30T13:40:28;100593.31;;;1.60;83.74
42671;BME280;28283;55.426;37.756;2024-01-30T13:45:28;100584.66;;;1.45;84.43
42671;BME280;28283;55.426;37.756;2024-01-30T13:50:29;100578.94;;;1.51;84.38
42671;BME280;28283;55.426;37.756;2024-01-30T13:55:30;100579.03;;;1.50;84.33
42671;BME280;28283;55.426;37.756;2024-01-30T14:00:31;100586.59;;;1.43;84.96
42671;BME280;28283;55.426;37.756;2024-01-30T14:05:31;100587.66;;;1.41;84.89
42671;BME280;28283;55.426;37.756;2024-01-30T14:10:32;100594.00;;;1.38;85.30
42671;BME280;28283;55.426;37.756;2024-01-30T14:15:32;100599.72;;;1.45;84.67
42671;BME280;28283;55.426;37.756;2024-01-30T14:20:33;100597.91;;;1.45;85.15
42671;BME280;28283;55.426;37.756;2024-01-30T14:25:33;100600.69;;;1.44;85.05
42671;BME280;28283;55.426;37.756;2024-01-30T14:30:34;100610.66;;;1.40;85.51
42671;BME280;28283;55.426;37.756;2024-01-30T14:35:35;100610.16;;;1.35;85.26
42671;BME280;28283;55.426;37.756;2024-01-30T14:40:35;100617.66;;;1.41;85.54
42671;BME280;28283;55.426;37.756;2024-01-30T14:45:36;100608.84;;;1.41;85.11
42671;BME280;28283;55.426;37.756;2024-01-30T14:50:36;100618.94;;;1.36;85.74
42671;BME280;28283;55.426;37.756;2024-01-30T14:55:36;100612.44;;;1.40;85.33
42671;BME280;28283;55.426;37.756;2024-01-30T15:00:37;100613.06;;;1.43;85.08
42671;BME280;28283;55.426;37.756;2024-01-30T15:05:38;100624.34;;;1.34;85.03
42671;BME280;28283;55.426;37.756;2024-01-30T15:10:39;100619.72;;;1.25;86.19
42671;BME280;28283;55.426;37.756;2024-01-30T15:15:39;100614.56;;;1.47;84.94
42671;BME280;28283;55.426;37.756;2024-01-30T15:20:40;100631.09;;;1.38;85.39
42671;BME280;28283;55.426;37.756;2024-01-30T15:25:40;100638.03;;;1.28;86.04
42671;BME280;28283;55.426;37.756;2024-01-30T15:30:41;100639.28;;;1.35;86.01
42671;BME280;28283;55.426;37.756;2024-01-30T15:35:44;100645.53;;;1.34;85.48
42671;BME280;28283;55.426;37.756;2024-01-30T15:40:45;100646.94;;;1.27;85.82
42671;BME280;28283;55.426;37.756;2024-01-30T15:45:45;100657.59;;;1.38;85.52
42671;BME280;28283;55.426;37.756;2024-01-30T15:50:46;100649.34;;;1.43;85.34
42671;BME280;28283;55.426;37.756;2024-01-30T15:55:47;100646.78;;;1.41;85.18
42671;BME280;28283;55.426;37.756;2024-01-30T16:00:47;100650.22;;;1.30;85.78
42671;BME280;28283;55.426;37.756;2024-01-30T16:05:48;100649.47;;;1.28;86.35
42671;BME280;28283;55.426;37.756;2024-01-30T16:10:48;100660.91;;;1.29;86.09
42671;BME280;28283;55.426;37.756;2024-01-30T16:15:49;100659.66;;;1.22;86.44
42671;BME280;28283;55.426;37.756;2024-01-30T16:20:49;100663.47;;;1.18;86.42
42671;BME280;28283;55.426;37.756;2024-01-30T16:25:49;100680.09;;;1.20;86.49
42671;BME280;28283;55.426;37.756;2024-01-30T16:30:50;100668.16;;;1.14;87.31
42671;BME280;28283;55.426;37.756;2024-01-30T16:35:50;100670.34;;;1.20;86.47
42671;BME280;28283;55.426;37.756;2024-01-30T16:40:51;100674.81;;;1.20;86.92
42671;BME280;28283;55.426;37.756;2024-01-30T16:45:51;100668.84;;;1.29;86.32
42671;BME280;28283;55.426;37.756;2024-01-30T16:50:52;100672.88;;;1.22;86.34
42671;BME280;28283;55.426;37.756;2024-01-30T16:55:53;100666.34;;;1.14;86.61
42671;BME280;28283;55.426;37.756;2024-01-30T17:00:53;100673.44;;;1.14;86.63
42671;BME280;28283;55.426;37.756;2024-01-30T17:05:54;100678.00;;;1.12;87.27
42671;BME280;28283;55.426;37.756;2024-01-30T17:10:54;100677.56;;;1.18;86.66
42671;BME280;28283;55.426;37.756;2024-01-30T17:15:58;100668.56;;;1.21;86.83
42671;BME280;28283;55.426;37.756;2024-01-30T17:20:58;100664.66;;;1.13;87.03
42671;BME280;28283;55.426;37.756;2024-01-30T17:25:58;100673.13;;;1.19;86.65
42671;BME280;28283;55.426;37.756;2024-01-30T17:30:59;100665.19;;;1.06;87.36
42671;BME280;28283;55.426;37.756;2024-01-30T17:36:00;100676.75;;;1.05;87.87
42671;BME280;28283;55.426;37.756;2024-01-30T17:41:00;100678.41;;;1.06;87.75
42671;BME280;28283;55.426;37.756;2024-01-30T17:46:01;100680.97;;;1.07;87.68
42671;BME280;28283;55.426;37.756;2024-01-30T17:51:02;100681.59;;;0.98;87.84
42671;BME280;28283;55.426;37.756;2024-01-30T17:56:02;100678.53;;;1.04;87.47
42671;BME280;28283;55.426;37.756;2024-01-30T18:01:06;100673.34;;;1.16;87.11
42671;BME280;28283;55.426;37.756;2024-01-30T18:06:06;100669.44;;;1.08;87.40
42671;BME280;28283;55.426;37.756;2024-01-30T18:11:07;100670.25;;;1.09;86.95
42671;BME280;28283;55.426;37.756;2024-01-30T18:16:07;100670.59;;;1.04;86.99
42671;BME280;28283;55.426;37.756;2024-01-30T18:21:08;100674.28;;;1.02;87.63
42671;BME280;28283;55.426;37.756;2024-01-30T18:26:08;100665.63;;;1.00;87.23
42671;BME280;28283;55.426;37.756;2024-01-30T18:31:09;100657.88;;;1.09;87.17
42671;BME280;28283;55.426;37.756;2024-01-30T18:36:09;100664.53;;;1.02;86.78
42671;BME280;28283;55.426;37.756;2024-01-30T18:41:09;100663.06;;;0.98;87.31
42671;BME280;28283;55.426;37.756;2024-01-30T18:46:10;100669.75;;;0.91;87.49
42671;BME280;28283;55.426;37.756;2024-01-30T18:51:13;100671.03;;;0.85;87.63
42671;BME280;28283;55.426;37.756;2024-01-30T18:56:15;100665.09;;;0.82;87.91
42671;BME280;28283;55.426;37.756;2024-01-30T19:01:22;100673.56;;;0.74;87.77
42671;BME280;28283;55.426;37.756;2024-01-30T19:06:22;100665.41;;;0.64;88.38
42671;BME280;28283;55.426;37.756;2024-01-30T19:11:23;100668.28;;;0.74;88.69
42671;BME280;28283;55.426;37.756;2024-01-30T19:16:23;100663.09;;;0.72;87.79
42671;BME280;28283;55.426;37.756;2024-01-30T19:21:24;100664.75;;;0.73;88.38
42671;BME280;28283;55.426;37.756;2024-01-30T19:26:24;100660.09;;;0.77;87.99
42671;BME280;28283;55.426;37.756;2024-01-30T19:31:25;100658.31;;;0.65;88.01
42671;BME280;28283;55.426;37.756;2024-01-30T19:36:25;100658.31;;;0.65;88.44
42671;BME280;28283;55.426;37.756;2024-01-30T19:41:26;100662.75;;;0.64;88.19
42671;BME280;28283;55.426;37.756;2024-01-30T19:46:27;100668.03;;;0.64;88.04
42671;BME280;28283;55.426;37.756;2024-01-30T19:51:27;100674.41;;;0.62;87.74
42671;BME280;28283;55.426;37.756;2024-01-30T19:56:29;100684.53;;;0.55;88.65
42671;BME280;28283;55.426;37.756;2024-01-30T20:01:29;100677.34;;;0.57;88.09
42671;BME280;28283;55.426;37.756;2024-01-30T20:06:30;100668.66;;;0.55;87.91
42671;BME280;28283;55.426;37.756;2024-01-30T20:11:30;100673.03;;;0.56;88.15
42671;BME280;28283;55.426;37.756;2024-01-30T20:16:38;100662.53;;;0.54;88.30
42671;BME280;28283;55.426;37.756;2024-01-30T20:21:39;100665.72;;;0.47;88.34
42671;BME280;28283;55.426;37.756;2024-01-30T20:26:40;100648.13;;;0.46;88.48
42671;BME280;28283;55.426;37.756;2024-01-30T20:31:41;100655.22;;;0.45;88.01
42671;BME280;28283;55.426;37.756;2024-01-30T20:36:41;100660.38;;;0.34;87.96
42671;BME280;28283;55.426;37.756;2024-01-30T20:41:44;100671.03;;;0.19;88.91
42671;BME280;28283;55.426;37.756;2024-01-30T20:46:45;100669.25;;;0.20;89.02
42671;BME280;28283;55.426;37.756;2024-01-30T20:51:45;100662.91;;;0.23;89.22
42671;BME280;28283;55.426;37.756;2024-01-30T20:56:47;100653.81;;;0.27;88.96
42671;BME280;28283;55.426;37.756;2024-01-30T21:01:48;100646.50;;;0.30;88.59
42671;BME280;28283;55.426;37.756;2024-01-30T21:06:48;100653.59;;;0.30;88.55
42671;BME280;28283;55.426;37.756;2024-01-30T21:11:49;100656.69;;;0.24;89.13
42671;BME280;28283;55.426;37.756;2024-01-30T21:16:49;100661.41;;;0.18;89.37
42671;BME280;28283;55.426;37.756;2024-01-30T21:21:50;100650.97;;;0.30;89.04
42671;BME280;28283;55.426;37.756;2024-01-30T21:26:50;100660.34;;;0.21;89.29
42671;BME280;28283;55.426;37.756;2024-01-30T21:31:51;100655.38;;;0.16;89.37
42671;BME280;28283;55.426;37.756;2024-01-30T21:36:51;100661.44;;;0.31;88.98
42671;BME280;28283;55.426;37.756;2024-01-30T21:41:52;100649.84;;;0.07;89.62
42671;BME280;28283;55.426;37.756;2024-01-30T21:46:53;100662.88;;;0.10;89.75
42671;BME280;28283;55.426;37.756;2024-01-30T21:51:54;100639.44;;;0.31;89.30
42671;BME280;28283;55.426;37.756;2024-01-30T21:56:55;100637.00;;;0.28;88.80
42671;BME280;28283;55.426;37.756;2024-01-30T22:01:55;100640.06;;;0.22;88.77
42671;BME280;28283;55.426;37.756;2024-01-30T22:06:56;100638.38;;;0.21;88.74
42671;BME280;28283;55.426;37.756;2024-01-30T22:11:56;100519.03;;;-0.53;89.00
42671;BME280;28283;55.426;37.756;2024-01-30T22:16:57;100627.66;;;0.09;89.22
42671;BME280;28283;55.426;37.756;2024-01-30T22:21:57;100609.31;;;-0.07;90.17
42671;BME280;28283;55.426;37.756;2024-01-30T22:26:58;100617.88;;;-0.16;90.29
42671;BME280;28283;55.426;37.756;2024-01-30T22:31:59;100609.53;;;0.03;89.77
42671;BME280;28283;55.426;37.756;2024-01-30T22:37:00;100614.31;;;-0.29;90.14
42671;BME280;28283;55.426;37.756;2024-01-30T22:42:01;100617.50;;;-0.24;91.23
42671;BME280;28283;55.426;37.756;2024-01-30T22:47:01;100610.22;;;-0.21;91.13
42671;BME280;28283;55.426;37.756;2024-01-30T22:52:02;100618.84;;;-0.31;91.48
42671;BME280;28283;55.426;37.756;2024-01-30T22:57:02;100603.56;;;-0.26;92.18
42671;BME280;28283;55.426;37.756;2024-01-30T23:02:03;100590.31;;;0.14;90.25
42671;BME280;28283;55.426;37.756;2024-01-30T23:07:03;100599.75;;;-0.22;90.58
42671;BME280;28283;55.426;37.756;2024-01-30T23:12:04;100596.56;;;0.00;89.75
42671;BME280;28283;55.426;37.756;2024-01-30T23:17:04;100601.03;;;-0.15;89.94
42671;BME280;28283;55.426;37.756;2024-01-30T23:22:05;100603.34;;;-0.50;89.87
42671;BME280;28283;55.426;37.756;2024-01-30T23:27:06;100604.84;;;-0.46;90.50
42671;BME280;28283;55.426;37.756;2024-01-30T23:32:06;100611.13;;;-0.34;91.45
42671;BME280;28283;55.426;37.756;2024-01-30T23:37:07;100594.97;;;-0.30;91.69
42671;BME280;28283;55.426;37.756;2024-01-30T23:42:07;100599.75;;;-0.22;92.16
42671;BME280;28283;55.426;37.756;2024-01-30T23:47:09;100596.28;;;-0.23;92.17
42671;BME280;28283;55.426;37.756;2024-01-30T23:52:10;100587.69;;;-0.26;92.10
42671;BME280;28283;55.426;37.756;2024-01-30T23:57:10;100588.16;;;-0.20;92.56
